アピア の空港の天気 - METARとTAF

ファレオロ国際空港(サモア) ( NSFA / APW ) - サモア アピア
飛行場実況気象(Metar)
観測時間02/18 04:00 WSDT (02/17 14:00 UTC)
風向・風速南東 2m/s
視程10km以上
天気現象
少しの雲 雲底高度 610m
気温26℃
湿度94%
気圧1008hPa
METARNSFA 171400Z 14004KT 9999 FEW020 26/25 Q1008 NOSIG
過去の天気等 Google飛行場航空写真 Wunderground天気予報

過去48時間のMETAR

飛行場予報(TAF)
発表時間: 2/18 01:01 WSDT (2/17 11:01 UTC)
予報対象時間: 18日2時 WSDT ~ 19日2時 WSDT
風向・風速西 3m/s
視程10km以上
天気現象弱いしゅう雨
全天の4割程度の雲 雲底高度 550m
全天の8割程度の雲 雲底高度 3050m
18日2時 WSDT ~ 18日5時 WSDT に 確率 40% で一時的に
視程3000m
天気現象雷雨
全天の8割程度の雲 雲底高度 460m
少しの積乱雲 雲底高度 550m
18日5時 WSDT ~ 18日14時 WSDT に 確率 30% で一時的に
視程5000m
天気現象雷雨
少しの積乱雲 雲底高度 550m
TAF NSFA 171101Z 1712/1812 26005KT 9999 -SHRA SCT018 BKN100
PROB40 TEMPO 1712/1715 3000 TSRA BKN015 FEW018CB
PROB30 TEMPO 1715/1724 5000 TSRA FEW018CB